createdAt,value
2022-11-16T00:00:22.513Z,14.20
2022-11-16T00:02:53.197Z,17.50
2022-11-16T00:05:28.177Z,19.50
2022-11-16T00:07:59.035Z,18.50
2022-11-16T00:10:29.448Z,17.70
2022-11-16T00:12:59.883Z,17.80
2022-11-16T00:15:30.362Z,20.10
2022-11-16T00:18:00.740Z,16.00
2022-11-16T00:20:31.154Z,19.80
2022-11-16T00:23:01.529Z,17.60
2022-11-16T00:25:31.849Z,14.90
2022-11-16T00:28:02.246Z,19.00
2022-11-16T00:30:33.335Z,15.50
2022-11-16T00:33:04.478Z,15.00
2022-11-16T00:35:38.608Z,17.10
2022-11-16T00:38:10.246Z,18.90
2022-11-16T00:40:40.935Z,13.80
2022-11-16T00:43:11.395Z,17.50
2022-11-16T00:45:42.939Z,12.90
2022-11-16T00:50:45.061Z,21.40
2022-11-16T00:53:18.362Z,17.40
2022-11-16T00:55:49.693Z,16.10
2022-11-16T00:58:22.056Z,18.80
2022-11-16T01:00:58.785Z,16.90
2022-11-16T01:03:29.433Z,17.80
2022-11-16T01:06:04.270Z,21.10
2022-11-16T01:08:36.530Z,18.20
2022-11-16T01:11:26.057Z,20.80
2022-11-16T01:13:59.583Z,18.90
2022-11-16T01:16:32.487Z,17.40
2022-11-16T01:19:04.083Z,20.70
2022-11-16T01:21:38.131Z,18.30
2022-11-16T01:24:17.682Z,17.60
2022-11-16T01:26:59.659Z,18.80
2022-11-16T01:33:08.151Z,19.10
2022-11-16T01:39:41.150Z,18.80
2022-11-16T01:42:49.004Z,20.60
2022-11-16T01:45:54.010Z,20.10
2022-11-16T01:48:54.045Z,21.10
2022-11-16T01:51:36.382Z,21.20
2022-11-16T01:54:17.351Z,22.00
2022-11-16T02:04:30.630Z,20.50
2022-11-16T02:07:55.823Z,21.30
2022-11-16T02:11:14.037Z,20.50
2022-11-16T02:26:28.816Z,19.60
2022-11-16T02:27:41.638Z,20.90
2022-11-16T02:35:01.272Z,24.40
2022-11-16T02:42:01.425Z,24.70
2022-11-16T02:46:00.329Z,28.00
2022-11-16T02:57:19.416Z,27.80
2022-11-16T03:01:06.783Z,31.60
2022-11-16T03:08:01.301Z,32.30
2022-11-16T03:10:52.707Z,36.00
2022-11-16T03:13:25.710Z,29.90
2022-11-16T03:15:57.647Z,32.40
2022-11-16T03:18:30.093Z,30.20
2022-11-16T03:21:11.522Z,29.60
2022-11-16T03:23:42.281Z,26.50
2022-11-16T03:26:18.000Z,27.20
2022-11-16T03:28:58.126Z,39.20
2022-11-16T03:31:32.290Z,31.30
2022-11-16T03:34:08.948Z,31.90
2022-11-16T03:36:43.353Z,26.20
2022-11-16T03:39:19.970Z,31.70
2022-11-16T03:41:52.897Z,28.90
2022-11-16T03:44:24.163Z,28.00
2022-11-16T03:46:54.749Z,21.90
2022-11-16T03:49:30.733Z,28.80
2022-11-16T03:52:01.416Z,28.90
2022-11-16T03:54:32.608Z,24.50
2022-11-16T03:57:04.431Z,28.40
2022-11-16T03:59:35.538Z,31.40
2022-11-16T04:02:05.907Z,29.10
2022-11-16T04:04:53.936Z,27.80
2022-11-16T04:07:42.538Z,21.60
2022-11-16T04:10:31.689Z,18.50
2022-11-16T04:13:20.527Z,20.80
2022-11-16T04:16:08.268Z,23.00
2022-11-16T04:18:55.810Z,23.70
2022-11-16T04:21:46.971Z,20.00
2022-11-16T04:24:21.105Z,27.10
2022-11-16T04:27:13.187Z,22.90
2022-11-16T04:29:44.651Z,27.60
2022-11-16T04:32:33.391Z,27.10
2022-11-16T04:35:21.685Z,29.10
2022-11-16T04:37:53.528Z,30.40
2022-11-16T04:40:29.666Z,35.60
2022-11-16T04:43:03.268Z,35.00
2022-11-16T04:45:54.771Z,33.10
2022-11-16T04:48:28.010Z,38.90
2022-11-16T04:50:58.731Z,40.80
2022-11-16T04:53:29.409Z,38.40
2022-11-16T04:56:06.770Z,44.50
2022-11-16T05:01:07.313Z,45.50
2022-11-16T05:03:37.985Z,48.30
2022-11-16T05:06:09.272Z,48.80
2022-11-16T05:11:09.429Z,49.60
2022-11-16T05:13:39.917Z,48.80
2022-11-16T05:16:13.261Z,54.20
2022-11-16T05:18:43.904Z,56.40
2022-11-16T05:21:15.031Z,54.00
2022-11-16T05:24:04.186Z,53.60
2022-11-16T05:26:36.394Z,66.90
2022-11-16T05:29:06.840Z,58.60
2022-11-16T05:31:40.472Z,62.90
2022-11-16T05:34:12.784Z,57.80
2022-11-16T05:36:43.360Z,56.20
2022-11-16T05:39:14.840Z,51.40
2022-11-16T05:41:46.186Z,56.60
2022-11-16T05:44:17.737Z,53.30
2022-11-16T05:46:48.716Z,55.90
2022-11-16T05:49:21.796Z,52.10
2022-11-16T05:51:52.571Z,56.10
2022-11-16T05:54:25.846Z,52.30
2022-11-16T06:00:20.565Z,63.00
2022-11-16T06:02:54.217Z,64.60
2022-11-16T06:05:27.954Z,58.10
2022-11-16T06:07:58.493Z,53.90
2022-11-16T06:10:30.700Z,53.30
2022-11-16T06:13:02.441Z,59.70
2022-11-16T06:18:01.936Z,61.80
2022-11-16T06:20:32.929Z,61.90
2022-11-16T06:23:03.374Z,60.40
2022-11-16T06:25:34.717Z,62.50
2022-11-16T06:28:07.853Z,60.10
2022-11-16T06:30:41.914Z,71.30
2022-11-16T06:33:12.532Z,69.10
2022-11-16T06:35:43.193Z,60.80
2022-11-16T06:40:52.653Z,58.80
2022-11-16T06:43:24.471Z,56.50
2022-11-16T06:45:57.755Z,63.30
2022-11-16T06:48:28.149Z,56.90
2022-11-16T06:50:59.698Z,59.80
2022-11-16T06:53:30.462Z,57.80
2022-11-16T06:56:05.614Z,65.30
2022-11-16T06:58:42.563Z,52.30
2022-11-16T07:01:14.230Z,56.40
2022-11-16T07:03:45.685Z,51.40
2022-11-16T07:06:16.414Z,62.50
2022-11-16T07:08:48.286Z,54.70
2022-11-16T07:11:21.613Z,53.80
2022-11-16T07:13:52.551Z,58.60
2022-11-16T07:16:22.991Z,63.50
2022-11-16T07:18:59.954Z,57.30
2022-11-16T07:21:32.700Z,62.20
2022-11-16T07:24:04.764Z,49.10
2022-11-16T07:26:36.384Z,62.30
2022-11-16T07:29:13.729Z,63.20
2022-11-16T07:31:46.358Z,59.70
2022-11-16T07:37:07.292Z,52.60
2022-11-16T07:39:37.843Z,60.30
2022-11-16T07:42:11.695Z,63.10
2022-11-16T07:45:14.989Z,56.30
2022-11-16T07:47:53.243Z,59.40
2022-11-16T07:50:46.815Z,45.20
2022-11-16T07:53:18.888Z,56.20
2022-11-16T07:55:55.240Z,55.20
2022-11-16T07:58:26.430Z,46.80
2022-11-16T08:03:26.527Z,51.40
2022-11-16T08:06:03.636Z,54.80
2022-11-16T08:08:34.819Z,54.30
2022-11-16T08:13:37.769Z,50.60
2022-11-16T08:16:11.876Z,51.40
2022-11-16T08:18:43.599Z,52.70
2022-11-16T08:21:16.776Z,46.00
2022-11-16T08:23:47.914Z,55.50
2022-11-16T08:26:20.390Z,55.30
2022-11-16T08:28:56.326Z,48.90
2022-11-16T08:31:31.366Z,48.00
2022-11-16T08:34:18.550Z,43.20
2022-11-16T08:36:52.527Z,46.70
2022-11-16T08:39:26.961Z,40.00
2022-11-16T08:41:57.548Z,38.50
2022-11-16T08:44:28.041Z,36.10
2022-11-16T08:46:59.079Z,35.00
2022-11-16T08:49:38.150Z,33.30
2022-11-16T08:52:08.754Z,37.80
2022-11-16T08:54:41.238Z,36.90
2022-11-16T08:57:11.592Z,32.70
2022-11-16T08:59:42.707Z,31.00
2022-11-16T09:02:15.938Z,24.20
2022-11-16T09:04:46.368Z,18.20
2022-11-16T09:07:16.816Z,21.20
2022-11-16T09:09:47.396Z,19.50
2022-11-16T09:12:17.872Z,27.10
2022-11-16T09:14:48.357Z,23.70
2022-11-16T09:17:22.917Z,21.80
2022-11-16T09:19:53.789Z,25.50
2022-11-16T09:22:24.178Z,24.30
2022-11-16T09:24:54.471Z,18.10
2022-11-16T09:27:24.959Z,22.30
2022-11-16T09:29:55.254Z,22.70
2022-11-16T09:32:26.610Z,21.80
2022-11-16T09:37:26.034Z,17.10
2022-11-16T09:39:58.730Z,19.20
2022-11-16T09:42:39.371Z,20.10
2022-11-16T09:45:17.628Z,21.20
2022-11-16T09:47:52.857Z,16.90
2022-11-16T09:50:32.478Z,11.00
2022-11-16T09:53:13.464Z,16.10
2022-11-16T09:55:49.757Z,17.90
2022-11-16T09:58:24.955Z,15.60
2022-11-16T10:01:01.060Z,15.00
2022-11-16T10:03:39.530Z,17.20
2022-11-16T10:06:20.652Z,16.50
2022-11-16T10:08:53.114Z,18.70
2022-11-16T10:12:00.251Z,16.40
2022-11-16T10:15:04.752Z,15.70
2022-11-16T10:17:50.192Z,17.70
2022-11-16T10:20:38.593Z,14.70
2022-11-16T10:23:17.565Z,15.80
2022-11-16T10:25:53.661Z,22.80
2022-11-16T10:28:38.941Z,16.90
2022-11-16T10:31:19.458Z,20.30
2022-11-16T10:33:55.204Z,17.70
2022-11-16T10:36:30.323Z,15.70
2022-11-16T10:39:02.839Z,18.40
2022-11-16T10:41:40.921Z,22.10
2022-11-16T10:44:17.481Z,27.20
2022-11-16T10:46:57.101Z,20.20
2022-11-16T10:49:36.806Z,14.20
2022-11-16T10:52:07.542Z,15.60
2022-11-16T10:54:43.912Z,18.20
2022-11-16T10:57:15.044Z,16.00
2022-11-16T10:59:49.939Z,15.40
2022-11-16T11:02:48.812Z,12.50
2022-11-16T11:05:57.567Z,14.60
2022-11-16T11:08:31.440Z,16.00
2022-11-16T11:11:24.841Z,19.10
2022-11-16T11:14:10.392Z,14.30
2022-11-16T11:16:41.597Z,16.50
2022-11-16T11:19:25.540Z,16.20
2022-11-16T11:22:00.518Z,14.20
2022-11-16T11:24:44.432Z,16.10
2022-11-16T11:27:22.257Z,11.90
2022-11-16T11:29:58.540Z,16.50
2022-11-16T11:32:35.451Z,14.20
2022-11-16T11:35:06.669Z,22.00
2022-11-16T11:37:39.452Z,12.90
2022-11-16T11:40:21.257Z,15.00
2022-11-16T11:43:03.462Z,31.00
2022-11-16T11:45:42.954Z,15.40
2022-11-16T11:48:30.856Z,16.60
2022-11-16T11:51:05.869Z,12.30
2022-11-16T11:53:55.861Z,16.30
2022-11-16T11:56:27.097Z,10.90
2022-11-16T11:58:58.087Z,13.40
2022-11-16T12:02:02.418Z,11.10
2022-11-16T12:05:17.406Z,14.00
2022-11-16T12:08:00.757Z,10.60
2022-11-16T12:10:42.151Z,10.00
2022-11-16T12:16:07.729Z,15.50
2022-11-16T12:18:54.219Z,11.00
2022-11-16T12:21:40.257Z,12.50
2022-11-16T12:24:34.503Z,14.80
2022-11-16T12:27:16.370Z,14.50
2022-11-16T12:29:58.312Z,11.30
2022-11-16T12:32:47.002Z,14.00
2022-11-16T12:35:34.649Z,14.20
2022-11-16T12:38:24.826Z,10.70
2022-11-16T12:43:38.102Z,12.70
2022-11-16T12:46:18.816Z,9.00
2022-11-16T12:49:32.081Z,14.50
2022-11-16T12:52:19.102Z,25.10
2022-11-16T12:55:27.262Z,22.00
2022-11-16T12:58:11.311Z,42.90
2022-11-16T13:00:56.694Z,14.40
2022-11-16T13:03:36.156Z,21.20
2022-11-16T13:06:10.642Z,13.60
2022-11-16T13:08:50.918Z,17.70
2022-11-16T13:11:24.840Z,10.80
2022-11-16T13:14:01.338Z,13.00
2022-11-16T13:16:32.204Z,14.10
2022-11-16T13:19:05.015Z,14.50
2022-11-16T13:21:44.520Z,12.20
2022-11-16T13:24:34.105Z,15.00
2022-11-16T13:27:19.355Z,19.00
2022-11-16T13:29:58.334Z,16.10
2022-11-16T13:32:45.123Z,12.50
2022-11-16T13:35:18.410Z,12.90
2022-11-16T13:37:50.701Z,17.90
2022-11-16T13:40:37.710Z,16.30
2022-11-16T13:43:17.985Z,12.30
2022-11-16T13:45:57.946Z,13.00
2022-11-16T13:48:34.358Z,12.30
2022-11-16T13:51:09.132Z,13.50
2022-11-16T13:56:50.905Z,12.40
2022-11-16T13:59:27.462Z,13.80
2022-11-16T14:02:00.079Z,11.30
2022-11-16T14:04:57.854Z,8.80
2022-11-16T14:07:42.868Z,9.80
2022-11-16T14:10:34.694Z,10.50
2022-11-16T14:13:05.961Z,11.00
2022-11-16T14:18:36.832Z,11.50
2022-11-16T14:21:17.345Z,9.90
2022-11-16T14:24:07.955Z,15.80
2022-11-16T14:26:53.101Z,13.20
2022-11-16T14:29:55.897Z,24.20
2022-11-16T14:32:30.124Z,14.80
2022-11-16T14:35:18.500Z,15.30
2022-11-16T14:38:00.415Z,10.40
2022-11-16T14:40:31.831Z,10.20
2022-11-16T14:45:53.306Z,9.40
2022-11-16T14:48:26.095Z,5.60
2022-11-16T14:51:07.386Z,12.00
2022-11-16T14:53:45.051Z,13.90
2022-11-16T14:56:17.325Z,13.90
2022-11-16T14:58:55.279Z,12.00
2022-11-16T15:01:28.851Z,9.70
2022-11-16T15:04:03.501Z,8.50
2022-11-16T15:06:41.084Z,8.70
2022-11-16T15:09:18.827Z,11.90
2022-11-16T15:12:08.750Z,15.00
2022-11-16T15:14:43.833Z,11.00
2022-11-16T15:17:19.102Z,11.00
2022-11-16T15:19:57.802Z,11.60
2022-11-16T15:22:30.329Z,10.60
2022-11-16T15:25:02.580Z,9.10
2022-11-16T15:27:38.056Z,15.50
2022-11-16T15:30:19.418Z,11.00
2022-11-16T15:32:51.565Z,12.10
2022-11-16T15:35:24.671Z,16.00
2022-11-16T15:38:05.749Z,9.90
2022-11-16T15:40:37.148Z,9.00
2022-11-16T15:43:08.892Z,12.70
2022-11-16T15:45:40.258Z,10.80
2022-11-16T15:50:56.976Z,13.00
2022-11-16T15:53:39.438Z,15.00
2022-11-16T15:56:13.692Z,10.90
2022-11-16T15:58:44.992Z,9.00
2022-11-16T16:03:55.607Z,10.80
2022-11-16T16:06:47.682Z,9.50
2022-11-16T16:09:25.931Z,13.70
2022-11-16T16:11:58.116Z,9.70
2022-11-16T16:14:30.780Z,12.80
2022-11-16T16:17:02.033Z,11.80
2022-11-16T16:19:41.450Z,9.50
2022-11-16T16:22:26.378Z,10.10
2022-11-16T16:24:56.968Z,9.90
2022-11-16T16:27:30.215Z,13.00
2022-11-16T16:30:04.728Z,11.40
2022-11-16T16:32:36.885Z,12.30
2022-11-16T16:35:16.324Z,16.90
2022-11-16T16:37:49.517Z,12.30
2022-11-16T16:40:20.820Z,12.10
2022-11-16T16:45:25.848Z,14.00
2022-11-16T16:47:56.578Z,14.10
2022-11-16T16:50:27.300Z,10.50
2022-11-16T16:52:58.105Z,12.50
2022-11-16T16:55:32.887Z,16.70
2022-11-16T16:58:07.376Z,11.80
2022-11-16T17:00:37.897Z,14.40
2022-11-16T17:03:10.105Z,12.60
2022-11-16T17:05:41.853Z,14.20
2022-11-16T17:08:12.368Z,13.10
2022-11-16T17:10:43.067Z,15.00
2022-11-16T17:13:13.355Z,15.90
2022-11-16T17:15:43.744Z,16.00
2022-11-16T17:18:14.558Z,13.90
2022-11-16T17:20:45.574Z,11.00
2022-11-16T17:23:18.231Z,15.00
2022-11-16T17:25:49.077Z,16.30
2022-11-16T17:28:20.051Z,11.40
2022-11-16T17:30:50.783Z,15.10
2022-11-16T17:33:21.232Z,15.50
2022-11-16T17:36:01.503Z,13.90
2022-11-16T17:38:32.087Z,15.50
2022-11-16T17:41:10.494Z,14.50
2022-11-16T17:43:41.979Z,16.20
2022-11-16T17:46:14.489Z,13.60
2022-11-16T17:48:47.085Z,14.00
2022-11-16T17:51:19.518Z,12.80
2022-11-16T17:53:50.518Z,14.70
2022-11-16T17:56:22.405Z,10.50
2022-11-16T17:58:54.886Z,11.00
2022-11-16T18:01:25.823Z,13.70
2022-11-16T18:03:56.539Z,11.00
2022-11-16T18:06:27.874Z,14.60
2022-11-16T18:11:29.471Z,19.30
2022-11-16T18:14:01.420Z,23.30
2022-11-16T18:16:33.800Z,25.70
2022-11-16T18:19:06.210Z,19.00
2022-11-16T18:21:42.561Z,19.10
2022-11-16T18:24:14.113Z,22.70
2022-11-16T18:26:44.692Z,13.60
2022-11-16T18:29:15.964Z,17.90
2022-11-16T18:34:16.790Z,12.60
2022-11-16T18:36:48.873Z,12.50
2022-11-16T18:39:19.523Z,11.70
2022-11-16T18:41:55.155Z,13.50
2022-11-16T18:44:25.971Z,14.60
2022-11-16T18:46:56.405Z,16.50
2022-11-16T18:49:27.619Z,18.00
2022-11-16T18:51:58.115Z,16.50
2022-11-16T18:54:29.098Z,25.40
2022-11-16T18:57:00.926Z,23.40
2022-11-16T18:59:31.376Z,14.10
2022-11-16T19:02:02.027Z,20.40
2022-11-16T19:04:32.729Z,16.60
2022-11-16T19:07:03.363Z,15.80
2022-11-16T19:09:33.804Z,14.70
2022-11-16T19:12:04.459Z,13.10
2022-11-16T19:14:34.937Z,15.20
2022-11-16T19:17:05.943Z,13.70
2022-11-16T19:19:36.501Z,13.40
2022-11-16T19:22:06.913Z,75.50
2022-11-16T19:24:37.251Z,40.60
2022-11-16T19:27:09.754Z,20.00
2022-11-16T19:29:40.675Z,19.20
2022-11-16T19:32:11.116Z,13.70
2022-11-16T19:34:41.823Z,16.80
2022-11-16T19:37:12.258Z,16.80
2022-11-16T19:39:42.642Z,21.10
2022-11-16T19:42:17.404Z,16.30
2022-11-16T19:44:47.867Z,16.90
2022-11-16T19:47:18.833Z,16.20
2022-11-16T19:52:20.542Z,17.40
2022-11-16T19:54:50.905Z,12.20
2022-11-16T19:57:21.408Z,9.80
2022-11-16T19:59:52.033Z,11.30
2022-11-16T20:02:22.663Z,13.50
2022-11-16T20:04:54.304Z,14.10
2022-11-16T20:07:24.831Z,10.00
2022-11-16T20:09:55.548Z,11.20
2022-11-16T20:12:25.981Z,16.90
2022-11-16T20:14:56.488Z,11.80
2022-11-16T20:17:27.316Z,8.90
2022-11-16T20:19:57.954Z,9.60
2022-11-16T20:22:28.225Z,12.30
2022-11-16T20:24:58.944Z,10.40
2022-11-16T20:27:29.330Z,22.20
2022-11-16T20:30:01.753Z,11.20
2022-11-16T20:32:35.601Z,16.40
2022-11-16T20:35:06.885Z,15.40
2022-11-16T20:40:08.763Z,17.80
2022-11-16T20:42:39.322Z,12.30
2022-11-16T20:45:12.592Z,9.60
2022-11-16T20:47:43.605Z,46.60
2022-11-16T20:50:14.038Z,23.30
2022-11-16T20:52:51.432Z,17.20
2022-11-16T20:55:23.426Z,13.70
2022-11-16T20:57:54.125Z,17.10
2022-11-16T21:00:24.809Z,19.00
2022-11-16T21:02:55.476Z,24.90
2022-11-16T21:05:25.889Z,29.00
2022-11-16T21:07:59.450Z,30.40
2022-11-16T21:10:31.022Z,20.10
2022-11-16T21:13:18.993Z,24.80
2022-11-16T21:15:57.904Z,18.40
2022-11-16T21:18:30.896Z,15.50
2022-11-16T21:21:02.983Z,12.30
2022-11-16T21:23:35.059Z,22.40
2022-11-16T21:26:07.399Z,11.80
2022-11-16T21:28:37.889Z,14.10
2022-11-16T21:31:10.547Z,13.90
2022-11-16T21:33:41.097Z,26.90
2022-11-16T21:36:16.168Z,12.90
2022-11-16T21:38:48.839Z,15.40
2022-11-16T21:41:20.735Z,15.50
2022-11-16T21:43:51.571Z,22.60
2022-11-16T21:46:24.751Z,12.90
2022-11-16T21:48:56.490Z,15.30
2022-11-16T21:51:28.072Z,15.10
2022-11-16T21:53:58.398Z,11.60
2022-11-16T21:56:28.780Z,11.80
2022-11-16T21:59:00.087Z,12.30
2022-11-16T22:01:51.232Z,11.90
2022-11-16T22:04:39.351Z,16.60
2022-11-16T22:07:34.418Z,12.80
2022-11-16T22:10:06.893Z,12.40
2022-11-16T22:12:39.369Z,13.80
2022-11-16T22:15:11.156Z,13.90
2022-11-16T22:17:45.325Z,15.50
2022-11-16T22:20:15.615Z,12.30
2022-11-16T22:22:46.281Z,12.10
2022-11-16T22:25:16.924Z,15.30
2022-11-16T22:28:19.279Z,11.70
2022-11-16T22:30:41.050Z,8.90
2022-11-16T22:33:11.988Z,11.20
2022-11-16T22:35:42.376Z,9.80
2022-11-16T22:38:12.992Z,12.30
2022-11-16T22:40:49.101Z,12.20
2022-11-16T22:43:19.578Z,9.70
2022-11-16T22:45:50.265Z,14.80
2022-11-16T22:48:20.728Z,12.40
2022-11-16T22:50:51.409Z,9.90
2022-11-16T22:53:21.781Z,9.00
2022-11-16T22:55:52.120Z,10.90
2022-11-16T22:58:22.554Z,8.50
2022-11-16T23:00:53.918Z,10.10
2022-11-16T23:05:53.369Z,13.40
2022-11-16T23:08:25.609Z,10.60
2022-11-16T23:11:21.035Z,9.60
2022-11-16T23:14:09.880Z,11.10
2022-11-16T23:16:40.584Z,13.30
2022-11-16T23:19:26.248Z,7.80
2022-11-16T23:22:10.888Z,11.00
2022-11-16T23:24:58.688Z,9.40
2022-11-16T23:27:34.637Z,7.90
2022-11-16T23:30:12.451Z,9.80
2022-11-16T23:32:43.501Z,10.70
2022-11-16T23:35:14.400Z,8.30
2022-11-16T23:37:56.263Z,11.30
2022-11-16T23:40:28.438Z,9.60
2022-11-16T23:43:16.899Z,9.50
2022-11-16T23:45:47.647Z,12.10
2022-11-16T23:48:19.351Z,10.90
2022-11-16T23:50:50.051Z,8.40
2022-11-16T23:53:20.626Z,10.80
2022-11-16T23:55:51.075Z,8.50
2022-11-16T23:58:21.466Z,10.10
